Flight Track Log - Related Links

Times and Time Zones

All times are in EDT time to prevent confusion due to time zone crossing. See the SWA407 flight status page for this flight to view local times or setup timezone preferences in your user account.

Time Position Orientation Groundspeed Altitude Reporting Facility
EDT Latitude Longitude Course Direction KTS MPH feet Rate Location/Type
Wed 02:59:58 PM 28.4333 -81.3000 19° North 149 171 1,000  Level Orlando TRACON
Wed 03:01:35 PM 28.5167 -81.2667 19° North 266 306 4,700 2,730 Climbing Orlando TRACON
Wed 03:03:07 PM 28.6267 -81.3197 337° Northwest 293 337 9,600 3,197 Climbing Jacksonville Center
Wed 03:04:07 PM 28.7044 -81.3706 330° Northwest 299 344 12,800 3,200 Climbing Jacksonville Center
Wed 03:05:07 PM 28.7906 -81.4239 332° Northwest 327 376 16,000 2,479 Climbing Jacksonville Center
Wed 03:06:08 PM 28.8831 -81.4722 335° Northwest 348 400 17,800 2,450 Climbing Jacksonville Center
Wed 03:07:07 PM 28.9833 -81.5017 346° North 365 420 20,900 2,672 Climbing Jacksonville Center
Wed 03:08:07 PM 29.0903 -81.5358 344° North 377 434 23,100 2,400 Climbing Jacksonville Center
Wed 03:09:07 PM 29.1992 -81.5700 345° North 390 449 25,700 2,750 Climbing Jacksonville Center
Wed 03:10:07 PM 29.3081 -81.6089 343° North 402 463 28,600 2,950 Climbing Jacksonville Center
Wed 03:11:07 PM 29.4211 -81.6408 346° North 408 470 31,600 2,200 Climbing Jacksonville Center
Wed 03:12:07 PM 29.5300 -81.6778 344° North 408 470 33,000 700 Climbing Jacksonville Center
Wed 03:13:07 PM 29.6411 -81.7122 345° North 408 470 33,000 150 Level Jacksonville Center
Wed 03:14:07 PM 29.7519 -81.7467 345° North 408 470 33,300 1,000 Climbing Jacksonville Center
Wed 03:15:07 PM 29.8608 -81.7814 345° North 403 464 35,000 850 Climbing Jacksonville Center
Wed 03:16:07 PM 29.9697 -81.8161 345° North 403 464 35,000  Level Jacksonville Center
Wed 03:17:07 PM 30.0786 -81.8461 347° North 403 464 35,000  Level Jacksonville Center
Wed 03:18:07 PM 30.1872 -81.8808 345° North 397 457 35,000  Level Jacksonville Center
Wed 03:19:07 PM 30.3022 -81.8772 North 397 457 35,000  Level Jacksonville Center
Wed 03:20:07 PM 30.4147 -81.8617 North 397 457 35,000  Level Jacksonville Center
Wed 03:21:07 PM 30.5236 -81.8894 348° North 411 473 35,000  Level Jacksonville Center
Wed 03:22:07 PM 30.6200 -81.9392 336° Northwest 406 467 35,000  Level Jacksonville Center
Wed 03:23:07 PM 30.7247 -81.9864 339° North 406 467 35,000  Level Jacksonville Center
Wed 03:24:07 PM 30.8294 -82.0314 340° North 401 461 35,000  Level Jacksonville Center
Wed 03:25:07 PM 30.9342 -82.0811 338° Northwest 401 461 35,000  Level Jacksonville Center
Wed 03:26:07 PM 31.0408 -82.1289 339° North 401 461 35,000  Level Jacksonville Center
Wed 03:27:07 PM 31.1456 -82.1764 339° North 401 461 35,000  Level Jacksonville Center
Wed 03:28:07 PM 31.2544 -82.2267 338° Northwest 406 467 35,000  Level Jacksonville Center
Wed 03:29:07 PM 31.3611 -82.2794 337° Northwest 411 473 35,000  Level Jacksonville Center
Wed 03:30:53 PM 31.5494 -82.3600 340° North 434 499 35,000  Level Atlanta Center
Wed 03:31:53 PM 31.6564 -82.4092 339° North 424 488 35,000  Level Atlanta Center
Wed 03:32:53 PM 31.7636 -82.4583 339° North 413 475 35,000  Level Atlanta Center
Wed 03:33:53 PM 31.8706 -82.5081 338° Northwest 413 475 35,000  Level Atlanta Center
Wed 03:34:53 PM 31.9736 -82.5600 337° Northwest 413 475 35,000 -150 Level Atlanta Center
Wed 03:35:53 PM 32.0644 -82.6467 321° Northwest 408 470 34,700 -600 Descending Atlanta Center
Wed 03:36:53 PM 32.1489 -82.7314 320° Northwest 408 470 33,800 -950 Descending Atlanta Center
Wed 03:37:53 PM 32.2372 -82.8183 320° Northwest 408 470 32,800 -1,000 Descending Atlanta Center
Wed 03:38:53 PM 32.3258 -82.9081 319° Northwest 413 475 31,800 -1,050 Descending Atlanta Center
Wed 03:39:53 PM 32.4100 -82.9931 320° Northwest 413 475 30,700 -1,050 Descending Atlanta Center
Wed 03:40:53 PM 32.4942 -83.0758 320° Northwest 408 470 29,700 -1,000 Descending Atlanta Center
Wed 03:41:53 PM 32.5764 -83.1614 319° Northwest 408 470 28,700 -1,000 Descending Atlanta Center
Wed 03:42:53 PM 32.6603 -83.2419 321° Northwest 402 463 27,700 -1,200 Descending Atlanta Center
Wed 03:43:53 PM 32.7381 -83.3228 319° Northwest 386 444 26,300 -1,650 Descending Atlanta Center
Wed 03:44:53 PM 32.8136 -83.4011 319° Northwest 375 432 24,400 -1,950 Descending Atlanta Center
Wed 03:45:53 PM 32.8911 -83.4772 320° Northwest 364 419 22,400 -1,950 Descending Atlanta Center
Wed 03:46:53 PM 32.9689 -83.5583 319° Northwest 369 425 20,500 -1,900 Descending Atlanta Center
Wed 03:47:53 PM 33.0442 -83.6350 320° Northwest 362 417 18,600 -1,950 Descending Atlanta Center
Wed 03:48:53 PM 33.1217 -83.7114 320° Northwest 345 397 16,600 -2,000 Descending Atlanta Center
Wed 03:49:53 PM 33.1886 -83.7806 319° Northwest 325 374 14,600 -1,400 Descending Atlanta Center
Wed 03:50:53 PM 33.2494 -83.8600 312° West 320 368 13,800 -1,250 Descending Atlanta Center
Wed 03:51:53 PM 33.2975 -83.9319 309° West 320 368 12,100 -900 Descending Atlanta Center
Wed 03:52:53 PM 33.3517 -84.0164 308° West 315 362 12,000 -50 Descending Atlanta Center
Wed 03:53:53 PM 33.4061 -84.0961 309° West 315 362 12,000  Level Atlanta Center
Wed 03:54:53 PM 33.4581 -84.1758 308° West 315 362 12,000  Level Atlanta Center
Wed 03:55:08 PM 33.4833 -84.2000 321° Northwest 307 353 12,000  Level Atlanta TRACON
Wed 03:56:08 PM 33.5333 -84.2833 306° West 270 311 12,000 -450 Level Atlanta TRACON
Wed 03:57:08 PM 33.5500 -84.3500 287° West 259 298 11,100 -1,300 Descending Atlanta TRACON
Wed 03:58:08 PM 33.5500 -84.4500 270° West 267 307 9,400 -1,800 Descending Atlanta TRACON
Wed 03:59:08 PM 33.5500 -84.5167 270° West 242 278 7,500 -2,050 Descending Atlanta TRACON
Wed 04:00:08 PM 33.5500 -84.6000 270° West 223 257 5,300 -2,200 Descending Atlanta TRACON
Wed 04:01:08 PM 33.5833 -84.6167 337° Northwest 232 267 3,100 -1,300 Descending Atlanta TRACON
Wed 04:02:08 PM 33.6167 -84.5667 51° Northeast 175 201 2,700 -500 Descending Atlanta TRACON
Wed 04:03:08 PM 33.6167 -84.5167 90° East 158 182 2,100 -650 Descending Atlanta TRACON
Wed 04:04:08 PM 33.6167 -84.4667 90° East 137 158 1,400 -700 Descending Atlanta TRACON
Wed 04:06:00 PM 33.6333 -84.4167 64° Northeast  Level FlightAware Approximate
Wed 04:13:00 PM 33.6367 -84.4279 64° Northeast  Level Estimated

Login

Don't have an account? Register now (free) for customized features, flight alerts, and more!